Aviation Digital Data Service (ADDS)

Output produced by METARs form (0325 UTC 19 August 2019)
found at http://www.aviationweather.gov/metar/data/
 
METAR text: LTBJ 190250Z 36015KT CAVOK 21/10 Q1012 NOSIG RMK RWY16 34013KT
Conditions at: LTBJ (IZMIR/ADNAN MEND, TR) observed 0250 UTC 19 August 2019
Temperature: 21.0°C (70°F)
Dewpoint: 10.0°C (50°F) [RH = 49%]
Pressure (altimeter): 29.88 inches Hg (1012.0 mb)
Winds: from the N (360 degrees) at 17 MPH (15 knots; 7.7 m/s)
Visibility: 6 or more miles (10+ km)
Ceiling: ceiling and visibility are OK
Clouds: unknown
Weather: no significant weather observed at this time

METAR text: LTBJ 190220Z 36018KT CAVOK 21/10 Q1012 NOSIG RMK RWY16 32010KT
Conditions at: LTBJ (IZMIR/ADNAN MEND, TR) observed 0220 UTC 19 August 2019
Temperature: 21.0°C (70°F)
Dewpoint: 10.0°C (50°F) [RH = 49%]
Pressure (altimeter): 29.88 inches Hg (1012.0 mb)
Winds: from the N (360 degrees) at 21 MPH (18 knots; 9.3 m/s)
Visibility: 6 or more miles (10+ km)
Ceiling: ceiling and visibility are OK
Clouds: unknown
Weather: no significant weather observed at this time

METAR text: LTBJ 190150Z 34011KT CAVOK 22/11 Q1012 NOSIG RMK RWY16 32006KT 280V350
Conditions at: LTBJ (IZMIR/ADNAN MEND, TR) observed 0150 UTC 19 August 2019
Temperature: 22.0°C (72°F)
Dewpoint: 11.0°C (52°F) [RH = 50%]
Pressure (altimeter): 29.88 inches Hg (1012.0 mb)
Winds: from the NNW (340 degrees) at 13 MPH (11 knots; 5.7 m/s)
Visibility: 6 or more miles (10+ km)
Ceiling: ceiling and visibility are OK
Clouds: unknown
Weather: no significant weather observed at this time

METAR text: LTBJ 190120Z 02012KT CAVOK 22/10 Q1012 NOSIG RMK RWY16 36015KT
Conditions at: LTBJ (IZMIR/ADNAN MEND, TR) observed 0120 UTC 19 August 2019
Temperature: 22.0°C (72°F)
Dewpoint: 10.0°C (50°F) [RH = 46%]
Pressure (altimeter): 29.88 inches Hg (1012.0 mb)
Winds: from the NNE (20 degrees) at 14 MPH (12 knots; 6.2 m/s)
Visibility: 6 or more miles (10+ km)
Ceiling: ceiling and visibility are OK
Clouds: unknown
Weather: no significant weather observed at this time

METAR text: LTBJ 190050Z 05004KT 320V120 CAVOK 22/10 Q1012 BECMG 35014KT
Conditions at: LTBJ (IZMIR/ADNAN MEND, TR) observed 0050 UTC 19 August 2019
Temperature: 22.0°C (72°F)
Dewpoint: 10.0°C (50°F) [RH = 46%]
Pressure (altimeter): 29.88 inches Hg (1012.0 mb)
Winds: from the NE (50 degrees) at 5 MPH (4 knots; 2.1 m/s)
Visibility: 6 or more miles (10+ km)
Ceiling: ceiling and visibility are OK
Clouds: unknown
Weather: no significant weather observed at this time

METAR text: LTBJ 190020Z 36010KT CAVOK 22/11 Q1012 NOSIG RMK RWY16 36014KT
Conditions at: LTBJ (IZMIR/ADNAN MEND, TR) observed 0020 UTC 19 August 2019
Temperature: 22.0°C (72°F)
Dewpoint: 11.0°C (52°F) [RH = 50%]
Pressure (altimeter): 29.88 inches Hg (1012.0 mb)
Winds: from the N (360 degrees) at 12 MPH (10 knots; 5.1 m/s)
Visibility: 6 or more miles (10+ km)
Ceiling: ceiling and visibility are OK
Clouds: unknown
Weather: no significant weather observed at this time

METAR text: LTBJ 182350Z 02008KT 340V050 CAVOK 22/11 Q1013 NOSIG RMK RWY16 36013KT
Conditions at: LTBJ (IZMIR/ADNAN MEND, TR) observed 2350 UTC 18 August 2019
Temperature: 22.0°C (72°F)
Dewpoint: 11.0°C (52°F) [RH = 50%]
Pressure (altimeter): 29.91 inches Hg (1013.0 mb)
Winds: from the NNE (20 degrees) at 9 MPH (8 knots; 4.1 m/s)
Visibility: 6 or more miles (10+ km)
Ceiling: ceiling and visibility are OK
Clouds: unknown
Weather: no significant weather observed at this time

METAR text: LTBJ 182320Z 02009KT CAVOK 22/12 Q1013 NOSIG RMK RWY16 35014KT
Conditions at: LTBJ (IZMIR/ADNAN MEND, TR) observed 2320 UTC 18 August 2019
Temperature: 22.0°C (72°F)
Dewpoint: 12.0°C (54°F) [RH = 53%]
Pressure (altimeter): 29.91 inches Hg (1013.0 mb)
Winds: from the NNE (20 degrees) at 10 MPH (9 knots; 4.6 m/s)
Visibility: 6 or more miles (10+ km)
Ceiling: ceiling and visibility are OK
Clouds: unknown
Weather: no significant weather observed at this time

METAR text: LTBJ 182250Z 34008KT CAVOK 23/12 Q1013 NOSIG RMK RWY16 01010KT
Conditions at: LTBJ (IZMIR/ADNAN MEND, TR) observed 2250 UTC 18 August 2019
Temperature: 23.0°C (73°F)
Dewpoint: 12.0°C (54°F) [RH = 50%]
Pressure (altimeter): 29.91 inches Hg (1013.0 mb)
Winds: from the NNW (340 degrees) at 9 MPH (8 knots; 4.1 m/s)
Visibility: 6 or more miles (10+ km)
Ceiling: ceiling and visibility are OK
Clouds: unknown
Weather: no significant weather observed at this time

METAR text: LTBJ 182220Z 36015KT CAVOK 23/12 Q1013 NOSIG RMK RWY16 36010KT
Conditions at: LTBJ (IZMIR/ADNAN MEND, TR) observed 2220 UTC 18 August 2019
Temperature: 23.0°C (73°F)
Dewpoint: 12.0°C (54°F) [RH = 50%]
Pressure (altimeter): 29.91 inches Hg (1013.0 mb)
Winds: from the N (360 degrees) at 17 MPH (15 knots; 7.7 m/s)
Visibility: 6 or more miles (10+ km)
Ceiling: ceiling and visibility are OK
Clouds: unknown
Weather: no significant weather observed at this time

METAR text: LTBJ 182150Z 36011KT CAVOK 23/12 Q1013 NOSIG RMK RWY16 36013KT
Conditions at: LTBJ (IZMIR/ADNAN MEND, TR) observed 2150 UTC 18 August 2019
Temperature: 23.0°C (73°F)
Dewpoint: 12.0°C (54°F) [RH = 50%]
Pressure (altimeter): 29.91 inches Hg (1013.0 mb)
Winds: from the N (360 degrees) at 13 MPH (11 knots; 5.7 m/s)
Visibility: 6 or more miles (10+ km)
Ceiling: ceiling and visibility are OK
Clouds: unknown
Weather: no significant weather observed at this time

METAR text: LTBJ 182120Z 36016KT CAVOK 24/12 Q1013 NOSIG RMK RWY16 36010KT 330V040
Conditions at: LTBJ (IZMIR/ADNAN MEND, TR) observed 2120 UTC 18 August 2019
Temperature: 24.0°C (75°F)
Dewpoint: 12.0°C (54°F) [RH = 47%]
Pressure (altimeter): 29.91 inches Hg (1013.0 mb)
Winds: from the N (360 degrees) at 18 MPH (16 knots; 8.2 m/s)
Visibility: 6 or more miles (10+ km)
Ceiling: ceiling and visibility are OK
Clouds: unknown
Weather: no significant weather observed at this time

METAR text: LTBJ 182050Z 35016KT CAVOK 24/11 Q1013 NOSIG RMK RWY16 35010KT 320V030
Conditions at: LTBJ (IZMIR/ADNAN MEND, TR) observed 2050 UTC 18 August 2019
Temperature: 24.0°C (75°F)
Dewpoint: 11.0°C (52°F) [RH = 44%]
Pressure (altimeter): 29.91 inches Hg (1013.0 mb)
Winds: from the N (350 degrees) at 18 MPH (16 knots; 8.2 m/s)
Visibility: 6 or more miles (10+ km)
Ceiling: ceiling and visibility are OK
Clouds: unknown
Weather: no significant weather observed at this time

METAR text: LTBJ 182020Z 35021KT CAVOK 24/11 Q1013 NOSIG RMK RWY16 36013KT
Conditions at: LTBJ (IZMIR/ADNAN MEND, TR) observed 2020 UTC 18 August 2019
Temperature: 24.0°C (75°F)
Dewpoint: 11.0°C (52°F) [RH = 44%]
Pressure (altimeter): 29.91 inches Hg (1013.0 mb)
Winds: from the N (350 degrees) at 24 MPH (21 knots; 10.8 m/s)
Visibility: 6 or more miles (10+ km)
Ceiling: ceiling and visibility are OK
Clouds: unknown
Weather: no significant weather observed at this time

METAR text: LTBJ 181950Z 36018KT CAVOK 24/10 Q1013 NOSIG RMK RWY16 35015KT
Conditions at: LTBJ (IZMIR/ADNAN MEND, TR) observed 1950 UTC 18 August 2019
Temperature: 24.0°C (75°F)
Dewpoint: 10.0°C (50°F) [RH = 41%]
Pressure (altimeter): 29.91 inches Hg (1013.0 mb)
Winds: from the N (360 degrees) at 21 MPH (18 knots; 9.3 m/s)
Visibility: 6 or more miles (10+ km)
Ceiling: ceiling and visibility are OK
Clouds: unknown
Weather: no significant weather observed at this time

METAR text: LTBJ 181920Z 36013KT CAVOK 24/08 Q1013 BECMG 01023G40KT
Conditions at: LTBJ (IZMIR/ADNAN MEND, TR) observed 1920 UTC 18 August 2019
Temperature: 24.0°C (75°F)
Dewpoint: 8.0°C (46°F) [RH = 36%]
Pressure (altimeter): 29.91 inches Hg (1013.0 mb)
Winds: from the N (360 degrees) at 15 MPH (13 knots; 6.7 m/s)
Visibility: 6 or more miles (10+ km)
Ceiling: ceiling and visibility are OK
Clouds: unknown
Weather: no significant weather observed at this time

METAR text: LTBJ 181850Z 01013KT CAVOK 25/08 Q1012 BECMG 01023G40KT
Conditions at: LTBJ (IZMIR/ADNAN MEND, TR) observed 1850 UTC 18 August 2019
Temperature: 25.0°C (77°F)
Dewpoint: 8.0°C (46°F) [RH = 34%]
Pressure (altimeter): 29.88 inches Hg (1012.0 mb)
Winds: from the N (10 degrees) at 15 MPH (13 knots; 6.7 m/s)
Visibility: 6 or more miles (10+ km)
Ceiling: ceiling and visibility are OK
Clouds: unknown
Weather: no significant weather observed at this time

METAR text: LTBJ 181820Z 02012KT CAVOK 25/08 Q1012 BECMG 01023G40KT
Conditions at: LTBJ (IZMIR/ADNAN MEND, TR) observed 1820 UTC 18 August 2019
Temperature: 25.0°C (77°F)
Dewpoint: 8.0°C (46°F) [RH = 34%]
Pressure (altimeter): 29.88 inches Hg (1012.0 mb)
Winds: from the NNE (20 degrees) at 14 MPH (12 knots; 6.2 m/s)
Visibility: 6 or more miles (10+ km)
Ceiling: ceiling and visibility are OK
Clouds: unknown
Weather: no significant weather observed at this time

METAR text: LTBJ 181750Z 03012KT CAVOK 26/09 Q1012 BECMG 01023G40KT RMK RWY16 01016KT
Conditions at: LTBJ (IZMIR/ADNAN MEND, TR) observed 1750 UTC 18 August 2019
Temperature: 26.0°C (79°F)
Dewpoint: 9.0°C (48°F) [RH = 34%]
Pressure (altimeter): 29.88 inches Hg (1012.0 mb)
Winds: from the NNE (30 degrees) at 14 MPH (12 knots; 6.2 m/s)
Visibility: 6 or more miles (10+ km)
Ceiling: ceiling and visibility are OK
Clouds: unknown
Weather: no significant weather observed at this time

METAR text: LTBJ 181720Z 02018KT CAVOK 26/10 Q1011 NOSIG RMK RWY16 02017KT
Conditions at: LTBJ (IZMIR/ADNAN MEND, TR) observed 1720 UTC 18 August 2019
Temperature: 26.0°C (79°F)
Dewpoint: 10.0°C (50°F) [RH = 37%]
Pressure (altimeter): 29.85 inches Hg (1011.0 mb)
Winds: from the NNE (20 degrees) at 21 MPH (18 knots; 9.3 m/s)
Visibility: 6 or more miles (10+ km)
Ceiling: ceiling and visibility are OK
Clouds: unknown
Weather: no significant weather observed at this time

METAR text: LTBJ 181650Z 03022KT CAVOK 27/10 Q1011 NOSIG RMK RWY16 03016KT
Conditions at: LTBJ (IZMIR/ADNAN MEND, TR) observed 1650 UTC 18 August 2019
Temperature: 27.0°C (81°F)
Dewpoint: 10.0°C (50°F) [RH = 34%]
Pressure (altimeter): 29.85 inches Hg (1011.0 mb)
Winds: from the NNE (30 degrees) at 25 MPH (22 knots; 11.3 m/s)
Visibility: 6 or more miles (10+ km)
Ceiling: ceiling and visibility are OK
Clouds: unknown
Weather: no significant weather observed at this time

METAR text: LTBJ 181620Z 03019KT CAVOK 28/10 Q1011 NOSIG RMK RWY16 02019KT
Conditions at: LTBJ (IZMIR/ADNAN MEND, TR) observed 1620 UTC 18 August 2019
Temperature: 28.0°C (82°F)
Dewpoint: 10.0°C (50°F) [RH = 32%]
Pressure (altimeter): 29.85 inches Hg (1011.0 mb)
Winds: from the NNE (30 degrees) at 22 MPH (19 knots; 9.8 m/s)
Visibility: 6 or more miles (10+ km)
Ceiling: ceiling and visibility are OK
Clouds: unknown
Weather: no significant weather observed at this time

METAR text: LTBJ 181550Z 03020KT 9999 FEW030 28/09 Q1011 NOSIG RMK RWY16 03021KT
Conditions at: LTBJ (IZMIR/ADNAN MEND, TR) observed 1550 UTC 18 August 2019
Temperature: 28.0°C (82°F)
Dewpoint: 9.0°C (48°F) [RH = 30%]
Pressure (altimeter): 29.85 inches Hg (1011.0 mb)
Winds: from the NNE (30 degrees) at 23 MPH (20 knots; 10.3 m/s)
Visibility: 6 or more miles (10+ km)
Ceiling: at least 12,000 feet AGL
Clouds: few clouds at 3000 feet AGL
Weather: no significant weather observed at this time

METAR text: LTBJ 181520Z 04021KT 9999 FEW030 29/10 Q1011 NOSIG RMK RWY16 03018KT
Conditions at: LTBJ (IZMIR/ADNAN MEND, TR) observed 1520 UTC 18 August 2019
Temperature: 29.0°C (84°F)
Dewpoint: 10.0°C (50°F) [RH = 31%]
Pressure (altimeter): 29.85 inches Hg (1011.0 mb)
Winds: from the NE (40 degrees) at 24 MPH (21 knots; 10.8 m/s)
Visibility: 6 or more miles (10+ km)
Ceiling: at least 12,000 feet AGL
Clouds: few clouds at 3000 feet AGL
Weather: no significant weather observed at this time

METAR text: LTBJ 181450Z 03021KT 9999 FEW030 30/09 Q1011 NOSIG RMK RWY16 03021KT 360V060
Conditions at: LTBJ (IZMIR/ADNAN MEND, TR) observed 1450 UTC 18 August 2019
Temperature: 30.0°C (86°F)
Dewpoint: 9.0°C (48°F) [RH = 27%]
Pressure (altimeter): 29.85 inches Hg (1011.0 mb)
Winds: from the NNE (30 degrees) at 24 MPH (21 knots; 10.8 m/s)
Visibility: 6 or more miles (10+ km)
Ceiling: at least 12,000 feet AGL
Clouds: few clouds at 3000 feet AGL
Weather: no significant weather observed at this time

METAR text: LTBJ 181420Z 03018KT 9999 FEW030 30/09 Q1011 NOSIG RMK RWY16 02020KT 340V050
Conditions at: LTBJ (IZMIR/ADNAN MEND, TR) observed 1420 UTC 18 August 2019
Temperature: 30.0°C (86°F)
Dewpoint: 9.0°C (48°F) [RH = 27%]
Pressure (altimeter): 29.85 inches Hg (1011.0 mb)
Winds: from the NNE (30 degrees) at 21 MPH (18 knots; 9.3 m/s)
Visibility: 6 or more miles (10+ km)
Ceiling: at least 12,000 feet AGL
Clouds: few clouds at 3000 feet AGL
Weather: no significant weather observed at this time

METAR text: LTBJ 181350Z 02019KT 9999 FEW030 31/09 Q1010 NOSIG RMK RWY16 02022KT
Conditions at: LTBJ (IZMIR/ADNAN MEND, TR) observed 1350 UTC 18 August 2019
Temperature: 31.0°C (88°F)
Dewpoint: 9.0°C (48°F) [RH = 26%]
Pressure (altimeter): 29.82 inches Hg (1010.0 mb)
Winds: from the NNE (20 degrees) at 22 MPH (19 knots; 9.8 m/s)
Visibility: 6 or more miles (10+ km)
Ceiling: at least 12,000 feet AGL
Clouds: few clouds at 3000 feet AGL
Weather: no significant weather observed at this time

METAR text: LTBJ 181320Z 03021KT 9999 FEW030 30/09 Q1011 NOSIG RMK RWY16 03020KT
Conditions at: LTBJ (IZMIR/ADNAN MEND, TR) observed 1320 UTC 18 August 2019
Temperature: 30.0°C (86°F)
Dewpoint: 9.0°C (48°F) [RH = 27%]
Pressure (altimeter): 29.85 inches Hg (1011.0 mb)
Winds: from the NNE (30 degrees) at 24 MPH (21 knots; 10.8 m/s)
Visibility: 6 or more miles (10+ km)
Ceiling: at least 12,000 feet AGL
Clouds: few clouds at 3000 feet AGL
Weather: no significant weather observed at this time

METAR text: LTBJ 181250Z 03021G31KT 9999 FEW030 30/09 Q1011 NOSIG RMK RWY16 02019KT 350V060
Conditions at: LTBJ (IZMIR/ADNAN MEND, TR) observed 1250 UTC 18 August 2019
Temperature: 30.0°C (86°F)
Dewpoint: 9.0°C (48°F) [RH = 27%]
Pressure (altimeter): 29.85 inches Hg (1011.0 mb)
Winds: from the NNE (30 degrees) at 24 MPH (21 knots; 10.8 m/s)
gusting to 36 MPH (31 knots; 15.9 m/s)
Visibility: 6 or more miles (10+ km)
Ceiling: at least 12,000 feet AGL
Clouds: few clouds at 3000 feet AGL
Weather: no significant weather observed at this time

METAR text: LTBJ 181220Z 02021KT 9999 FEW030 30/09 Q1011 NOSIG RMK RWY16 02020G32KT
Conditions at: LTBJ (IZMIR/ADNAN MEND, TR) observed 1220 UTC 18 August 2019
Temperature: 30.0°C (86°F)
Dewpoint: 9.0°C (48°F) [RH = 27%]
Pressure (altimeter): 29.85 inches Hg (1011.0 mb)
Winds: from the NNE (20 degrees) at 24 MPH (21 knots; 10.8 m/s)
Visibility: 6 or more miles (10+ km)
Ceiling: at least 12,000 feet AGL
Clouds: few clouds at 3000 feet AGL
Weather: no significant weather observed at this time

METAR text: LTBJ 181150Z 02021KT 350V060 9999 FEW030 30/08 Q1011 NOSIG RMK RWY16 02022G32KT 350V050
Conditions at: LTBJ (IZMIR/ADNAN MEND, TR) observed 1150 UTC 18 August 2019
Temperature: 30.0°C (86°F)
Dewpoint: 8.0°C (46°F) [RH = 25%]
Pressure (altimeter): 29.85 inches Hg (1011.0 mb)
Winds: from the NNE (20 degrees) at 24 MPH (21 knots; 10.8 m/s)
Visibility: 6 or more miles (10+ km)
Ceiling: at least 12,000 feet AGL
Clouds: few clouds at 3000 feet AGL
Weather: no significant weather observed at this time

METAR text: LTBJ 181134Z 03022G33KT 360V060 9999 FEW030 29/09 Q1011 NOSIG RMK RWY16 03021KT
Conditions at: LTBJ (IZMIR/ADNAN MEND, TR) observed 1134 UTC 18 August 2019
Temperature: 29.0°C (84°F)
Dewpoint: 9.0°C (48°F) [RH = 29%]
Pressure (altimeter): 29.85 inches Hg (1011.0 mb)
Winds: from the NNE (30 degrees) at 25 MPH (22 knots; 11.3 m/s)
gusting to 38 MPH (33 knots; 17.0 m/s)
Visibility: 6 or more miles (10+ km)
Ceiling: at least 12,000 feet AGL
Clouds: few clouds at 3000 feet AGL
Weather: no significant weather observed at this time

METAR text: LTBJ 181120Z 02023KT 9999 FEW030 30/08 Q1011 NOSIG RMK RWY16 03023KT
Conditions at: LTBJ (IZMIR/ADNAN MEND, TR) observed 1120 UTC 18 August 2019
Temperature: 30.0°C (86°F)
Dewpoint: 8.0°C (46°F) [RH = 25%]
Pressure (altimeter): 29.85 inches Hg (1011.0 mb)
Winds: from the NNE (20 degrees) at 26 MPH (23 knots; 11.8 m/s)
Visibility: 6 or more miles (10+ km)
Ceiling: at least 12,000 feet AGL
Clouds: few clouds at 3000 feet AGL
Weather: no significant weather observed at this time

METAR text: LTBJ 181108Z 02022G32KT 9999 FEW030 29/09 Q1011 NOSIG RMK RWY16 03023KT
Conditions at: LTBJ (IZMIR/ADNAN MEND, TR) observed 1108 UTC 18 August 2019
Temperature: 29.0°C (84°F)
Dewpoint: 9.0°C (48°F) [RH = 29%]
Pressure (altimeter): 29.85 inches Hg (1011.0 mb)
Winds: from the NNE (20 degrees) at 25 MPH (22 knots; 11.3 m/s)
gusting to 37 MPH (32 knots; 16.5 m/s)
Visibility: 6 or more miles (10+ km)
Ceiling: at least 12,000 feet AGL
Clouds: few clouds at 3000 feet AGL
Weather: no significant weather observed at this time

METAR text: LTBJ 181050Z 03019KT 360V060 9999 FEW030 28/09 Q1011 NOSIG RMK RWY16 01025KT
Conditions at: LTBJ (IZMIR/ADNAN MEND, TR) observed 1050 UTC 18 August 2019
Temperature: 28.0°C (82°F)
Dewpoint: 9.0°C (48°F) [RH = 30%]
Pressure (altimeter): 29.85 inches Hg (1011.0 mb)
Winds: from the NNE (30 degrees) at 22 MPH (19 knots; 9.8 m/s)
Visibility: 6 or more miles (10+ km)
Ceiling: at least 12,000 feet AGL
Clouds: few clouds at 3000 feet AGL
Weather: no significant weather observed at this time

METAR text: LTBJ 181044Z 03019KT 360V060 9999 FEW030 29/10 Q1012 NOSIG RMK RWY16 01022G34KT 350V050
Conditions at: LTBJ (IZMIR/ADNAN MEND, TR) observed 1044 UTC 18 August 2019
Temperature: 29.0°C (84°F)
Dewpoint: 10.0°C (50°F) [RH = 31%]
Pressure (altimeter): 29.88 inches Hg (1012.0 mb)
Winds: from the NNE (30 degrees) at 22 MPH (19 knots; 9.8 m/s)
Visibility: 6 or more miles (10+ km)
Ceiling: at least 12,000 feet AGL
Clouds: few clouds at 3000 feet AGL
Weather: no significant weather observed at this time

METAR text: LTBJ 181034Z 02021G32KT 9999 FEW030 28/09 Q1012 NOSIG RMK RWY16 02021G31KT 350V050
Conditions at: LTBJ (IZMIR/ADNAN MEND, TR) observed 1034 UTC 18 August 2019
Temperature: 28.0°C (82°F)
Dewpoint: 9.0°C (48°F) [RH = 30%]
Pressure (altimeter): 29.88 inches Hg (1012.0 mb)
Winds: from the NNE (20 degrees) at 24 MPH (21 knots; 10.8 m/s)
gusting to 37 MPH (32 knots; 16.5 m/s)
Visibility: 6 or more miles (10+ km)
Ceiling: at least 12,000 feet AGL
Clouds: few clouds at 3000 feet AGL
Weather: no significant weather observed at this time

METAR text: LTBJ 181020Z 02022KT 360V070 9999 FEW030 28/09 Q1012 NOSIG RMK RWY16 03021KT
Conditions at: LTBJ (IZMIR/ADNAN MEND, TR) observed 1020 UTC 18 August 2019
Temperature: 28.0°C (82°F)
Dewpoint: 9.0°C (48°F) [RH = 30%]
Pressure (altimeter): 29.88 inches Hg (1012.0 mb)
Winds: from the NNE (20 degrees) at 25 MPH (22 knots; 11.3 m/s)
Visibility: 6 or more miles (10+ km)
Ceiling: at least 12,000 feet AGL
Clouds: few clouds at 3000 feet AGL
Weather: no significant weather observed at this time

METAR text: LTBJ 180950Z 02025G36KT 9999 FEW030 28/10 Q1012 NOSIG RMK RWY16 02024KT
Conditions at: LTBJ (IZMIR/ADNAN MEND, TR) observed 0950 UTC 18 August 2019
Temperature: 28.0°C (82°F)
Dewpoint: 10.0°C (50°F) [RH = 32%]
Pressure (altimeter): 29.88 inches Hg (1012.0 mb)
Winds: from the NNE (20 degrees) at 29 MPH (25 knots; 12.9 m/s)
gusting to 41 MPH (36 knots; 18.5 m/s)
Visibility: 6 or more miles (10+ km)
Ceiling: at least 12,000 feet AGL
Clouds: few clouds at 3000 feet AGL
Weather: no significant weather observed at this time

METAR text: LTBJ 180920Z 01028KT 9999 FEW030 27/10 Q1012 NOSIG RMK RWY16 03026G36KT
Conditions at: LTBJ (IZMIR/ADNAN MEND, TR) observed 0920 UTC 18 August 2019
Temperature: 27.0°C (81°F)
Dewpoint: 10.0°C (50°F) [RH = 34%]
Pressure (altimeter): 29.88 inches Hg (1012.0 mb)
Winds: from the N (10 degrees) at 32 MPH (28 knots; 14.4 m/s)
Visibility: 6 or more miles (10+ km)
Ceiling: at least 12,000 feet AGL
Clouds: few clouds at 3000 feet AGL
Weather: no significant weather observed at this time

METAR text: LTBJ 180915Z 02029KT 9999 FEW030 27/10 Q1012 NOSIG RMK RWY16 03026G36KT
Conditions at: LTBJ (IZMIR/ADNAN MEND, TR) observed 0915 UTC 18 August 2019
Temperature: 27.0°C (81°F)
Dewpoint: 10.0°C (50°F) [RH = 34%]
Pressure (altimeter): 29.88 inches Hg (1012.0 mb)
Winds: from the NNE (20 degrees) at 33 MPH (29 knots; 14.9 m/s)
Visibility: 6 or more miles (10+ km)
Ceiling: at least 12,000 feet AGL
Clouds: few clouds at 3000 feet AGL
Weather: no significant weather observed at this time

METAR text: LTBJ 180850Z 02030G40KT 9999 FEW030 27/09 Q1012 NOSIG RMK RWY16 02027KT
Conditions at: LTBJ (IZMIR/ADNAN MEND, TR) observed 0850 UTC 18 August 2019
Temperature: 27.0°C (81°F)
Dewpoint: 9.0°C (48°F) [RH = 32%]
Pressure (altimeter): 29.88 inches Hg (1012.0 mb)
Winds: from the NNE (20 degrees) at 34 MPH (30 knots; 15.4 m/s)
gusting to 46 MPH (40 knots; 20.6 m/s)
Visibility: 6 or more miles (10+ km)
Ceiling: at least 12,000 feet AGL
Clouds: few clouds at 3000 feet AGL
Weather: no significant weather observed at this time

METAR text: LTBJ 180842Z 02029G39KT 9999 FEW030 27/08 Q1012 NOSIG RMK RWY16 02027G37KT
Conditions at: LTBJ (IZMIR/ADNAN MEND, TR) observed 0842 UTC 18 August 2019
Temperature: 27.0°C (81°F)
Dewpoint: 8.0°C (46°F) [RH = 30%]
Pressure (altimeter): 29.88 inches Hg (1012.0 mb)
Winds: from the NNE (20 degrees) at 33 MPH (29 knots; 14.9 m/s)
gusting to 45 MPH (39 knots; 20.1 m/s)
Visibility: 6 or more miles (10+ km)
Ceiling: at least 12,000 feet AGL
Clouds: few clouds at 3000 feet AGL
Weather: no significant weather observed at this time

METAR text: LTBJ 180820Z 02028KT 9999 FEW030 26/08 Q1012 NOSIG RMK RWY16 01030G41KT
Conditions at: LTBJ (IZMIR/ADNAN MEND, TR) observed 0820 UTC 18 August 2019
Temperature: 26.0°C (79°F)
Dewpoint: 8.0°C (46°F) [RH = 32%]
Pressure (altimeter): 29.88 inches Hg (1012.0 mb)
Winds: from the NNE (20 degrees) at 32 MPH (28 knots; 14.4 m/s)
Visibility: 6 or more miles (10+ km)
Ceiling: at least 12,000 feet AGL
Clouds: few clouds at 3000 feet AGL
Weather: no significant weather observed at this time

METAR text: LTBJ 180750Z 01024G36KT 9999 FEW030 26/09 Q1012 NOSIG RMK RWY16 01029G40KT
Conditions at: LTBJ (IZMIR/ADNAN MEND, TR) observed 0750 UTC 18 August 2019
Temperature: 26.0°C (79°F)
Dewpoint: 9.0°C (48°F) [RH = 34%]
Pressure (altimeter): 29.88 inches Hg (1012.0 mb)
Winds: from the N (10 degrees) at 28 MPH (24 knots; 12.3 m/s)
gusting to 41 MPH (36 knots; 18.5 m/s)
Visibility: 6 or more miles (10+ km)
Ceiling: at least 12,000 feet AGL
Clouds: few clouds at 3000 feet AGL
Weather: no significant weather observed at this time

METAR text: LTBJ 180720Z 01026KT 9999 FEW030 25/09 Q1012 NOSIG RMK RWY16 36024G36KT
Conditions at: LTBJ (IZMIR/ADNAN MEND, TR) observed 0720 UTC 18 August 2019
Temperature: 25.0°C (77°F)
Dewpoint: 9.0°C (48°F) [RH = 36%]
Pressure (altimeter): 29.88 inches Hg (1012.0 mb)
Winds: from the N (10 degrees) at 30 MPH (26 knots; 13.4 m/s)
Visibility: 6 or more miles (10+ km)
Ceiling: at least 12,000 feet AGL
Clouds: few clouds at 3000 feet AGL
Weather: no significant weather observed at this time

METAR text: LTBJ 180650Z 01024G34KT 9999 FEW030 25/10 Q1012 NOSIG RMK RWY16 36023KT
Conditions at: LTBJ (IZMIR/ADNAN MEND, TR) observed 0650 UTC 18 August 2019
Temperature: 25.0°C (77°F)
Dewpoint: 10.0°C (50°F) [RH = 39%]
Pressure (altimeter): 29.88 inches Hg (1012.0 mb)
Winds: from the N (10 degrees) at 28 MPH (24 knots; 12.3 m/s)
gusting to 39 MPH (34 knots; 17.5 m/s)
Visibility: 6 or more miles (10+ km)
Ceiling: at least 12,000 feet AGL
Clouds: few clouds at 3000 feet AGL
Weather: no significant weather observed at this time

METAR text: LTBJ 180641Z 01023G33KT CAVOK 25/10 Q1012 NOSIG RMK RWY16 01022G33KT
Conditions at: LTBJ (IZMIR/ADNAN MEND, TR) observed 0641 UTC 18 August 2019
Temperature: 25.0°C (77°F)
Dewpoint: 10.0°C (50°F) [RH = 39%]
Pressure (altimeter): 29.88 inches Hg (1012.0 mb)
Winds: from the N (10 degrees) at 26 MPH (23 knots; 11.8 m/s)
gusting to 38 MPH (33 knots; 17.0 m/s)
Visibility: 6 or more miles (10+ km)
Ceiling: ceiling and visibility are OK
Clouds: unknown
Weather: no significant weather observed at this time

METAR text: LTBJ 180620Z 01022KT CAVOK 24/11 Q1012 NOSIG RMK RWY16 01022KT 330V030
Conditions at: LTBJ (IZMIR/ADNAN MEND, TR) observed 0620 UTC 18 August 2019
Temperature: 24.0°C (75°F)
Dewpoint: 11.0°C (52°F) [RH = 44%]
Pressure (altimeter): 29.88 inches Hg (1012.0 mb)
Winds: from the N (10 degrees) at 25 MPH (22 knots; 11.3 m/s)
Visibility: 6 or more miles (10+ km)
Ceiling: ceiling and visibility are OK
Clouds: unknown
Weather: no significant weather observed at this time

METAR text: LTBJ 180550Z 02018G29KT CAVOK 23/11 Q1012 NOSIG RMK RWY16 36022G32KT
Conditions at: LTBJ (IZMIR/ADNAN MEND, TR) observed 0550 UTC 18 August 2019
Temperature: 23.0°C (73°F)
Dewpoint: 11.0°C (52°F) [RH = 47%]
Pressure (altimeter): 29.88 inches Hg (1012.0 mb)
Winds: from the NNE (20 degrees) at 21 MPH (18 knots; 9.3 m/s)
gusting to 33 MPH (29 knots; 14.9 m/s)
Visibility: 6 or more miles (10+ km)
Ceiling: ceiling and visibility are OK
Clouds: unknown
Weather: no significant weather observed at this time

METAR text: LTBJ 180520Z 02015KT 360V060 CAVOK 23/11 Q1012 NOSIG RMK RWY16 36018KT
Conditions at: LTBJ (IZMIR/ADNAN MEND, TR) observed 0520 UTC 18 August 2019
Temperature: 23.0°C (73°F)
Dewpoint: 11.0°C (52°F) [RH = 47%]
Pressure (altimeter): 29.88 inches Hg (1012.0 mb)
Winds: from the NNE (20 degrees) at 17 MPH (15 knots; 7.7 m/s)
Visibility: 6 or more miles (10+ km)
Ceiling: ceiling and visibility are OK
Clouds: unknown
Weather: no significant weather observed at this time

METAR text: LTBJ 180450Z 04011KT 010V080 CAVOK 22/11 Q1012 NOSIG RMK RWY16 35023KT
Conditions at: LTBJ (IZMIR/ADNAN MEND, TR) observed 0450 UTC 18 August 2019
Temperature: 22.0°C (72°F)
Dewpoint: 11.0°C (52°F) [RH = 50%]
Pressure (altimeter): 29.88 inches Hg (1012.0 mb)
Winds: from the NE (40 degrees) at 13 MPH (11 knots; 5.7 m/s)
Visibility: 6 or more miles (10+ km)
Ceiling: ceiling and visibility are OK
Clouds: unknown
Weather: no significant weather observed at this time

METAR text: LTBJ 180420Z 01017KT CAVOK 21/11 Q1012 NOSIG RMK RWY16 35022KT
Conditions at: LTBJ (IZMIR/ADNAN MEND, TR) observed 0420 UTC 18 August 2019
Temperature: 21.0°C (70°F)
Dewpoint: 11.0°C (52°F) [RH = 53%]
Pressure (altimeter): 29.88 inches Hg (1012.0 mb)
Winds: from the N (10 degrees) at 20 MPH (17 knots; 8.7 m/s)
Visibility: 6 or more miles (10+ km)
Ceiling: ceiling and visibility are OK
Clouds: unknown
Weather: no significant weather observed at this time

METAR text: LTBJ 180350Z 01018KT CAVOK 21/11 Q1011 NOSIG RMK RWY16 36019KT
Conditions at: LTBJ (IZMIR/ADNAN MEND, TR) observed 0350 UTC 18 August 2019
Temperature: 21.0°C (70°F)
Dewpoint: 11.0°C (52°F) [RH = 53%]
Pressure (altimeter): 29.85 inches Hg (1011.0 mb)
Winds: from the N (10 degrees) at 21 MPH (18 knots; 9.3 m/s)
Visibility: 6 or more miles (10+ km)
Ceiling: ceiling and visibility are OK
Clouds: unknown
Weather: no significant weather observed at this time

METAR text: LTBJ 180320Z 01017KT CAVOK 21/11 Q1011 NOSIG RMK RWY16 36018KT
Conditions at: LTBJ (IZMIR/ADNAN MEND, TR) observed 0320 UTC 18 August 2019
Temperature: 21.0°C (70°F)
Dewpoint: 11.0°C (52°F) [RH = 53%]
Pressure (altimeter): 29.85 inches Hg (1011.0 mb)
Winds: from the N (10 degrees) at 20 MPH (17 knots; 8.7 m/s)
Visibility: 6 or more miles (10+ km)
Ceiling: ceiling and visibility are OK
Clouds: unknown
Weather: no significant weather observed at this time

METAR text: LTBJ 180250Z 35019KT CAVOK 21/12 Q1011 NOSIG RMK RWY16 35019KT
Conditions at: LTBJ (IZMIR/ADNAN MEND, TR) observed 0250 UTC 18 August 2019
Temperature: 21.0°C (70°F)
Dewpoint: 12.0°C (54°F) [RH = 56%]
Pressure (altimeter): 29.85 inches Hg (1011.0 mb)
Winds: from the N (350 degrees) at 22 MPH (19 knots; 9.8 m/s)
Visibility: 6 or more miles (10+ km)
Ceiling: ceiling and visibility are OK
Clouds: unknown
Weather: no significant weather observed at this time

METAR text: LTBJ 180220Z 34016KT CAVOK 22/12 Q1011 NOSIG RMK RWY16 35016KT
Conditions at: LTBJ (IZMIR/ADNAN MEND, TR) observed 0220 UTC 18 August 2019
Temperature: 22.0°C (72°F)
Dewpoint: 12.0°C (54°F) [RH = 53%]
Pressure (altimeter): 29.85 inches Hg (1011.0 mb)
Winds: from the NNW (340 degrees) at 18 MPH (16 knots; 8.2 m/s)
Visibility: 6 or more miles (10+ km)
Ceiling: ceiling and visibility are OK
Clouds: unknown
Weather: no significant weather observed at this time

METAR text: LTBJ 180150Z 34017KT CAVOK 22/12 Q1011 NOSIG RMK RWY16 34019KT
Conditions at: LTBJ (IZMIR/ADNAN MEND, TR) observed 0150 UTC 18 August 2019
Temperature: 22.0°C (72°F)
Dewpoint: 12.0°C (54°F) [RH = 53%]
Pressure (altimeter): 29.85 inches Hg (1011.0 mb)
Winds: from the NNW (340 degrees) at 20 MPH (17 knots; 8.7 m/s)
Visibility: 6 or more miles (10+ km)
Ceiling: ceiling and visibility are OK
Clouds: unknown
Weather: no significant weather observed at this time

METAR text: LTBJ 180120Z 34020KT CAVOK 22/12 Q1011 NOSIG RMK RWY16 34018KT
Conditions at: LTBJ (IZMIR/ADNAN MEND, TR) observed 0120 UTC 18 August 2019
Temperature: 22.0°C (72°F)
Dewpoint: 12.0°C (54°F) [RH = 53%]
Pressure (altimeter): 29.85 inches Hg (1011.0 mb)
Winds: from the NNW (340 degrees) at 23 MPH (20 knots; 10.3 m/s)
Visibility: 6 or more miles (10+ km)
Ceiling: ceiling and visibility are OK
Clouds: unknown
Weather: no significant weather observed at this time

METAR text: LTBJ 180050Z 36019KT CAVOK 22/12 Q1011 NOSIG RMK RWY16 36019KT
Conditions at: LTBJ (IZMIR/ADNAN MEND, TR) observed 0050 UTC 18 August 2019
Temperature: 22.0°C (72°F)
Dewpoint: 12.0°C (54°F) [RH = 53%]
Pressure (altimeter): 29.85 inches Hg (1011.0 mb)
Winds: from the N (360 degrees) at 22 MPH (19 knots; 9.8 m/s)
Visibility: 6 or more miles (10+ km)
Ceiling: ceiling and visibility are OK
Clouds: unknown
Weather: no significant weather observed at this time

METAR text: LTBJ 180020Z 35018KT CAVOK 22/11 Q1011 NOSIG RMK RWY16 35018KT
Conditions at: LTBJ (IZMIR/ADNAN MEND, TR) observed 0020 UTC 18 August 2019
Temperature: 22.0°C (72°F)
Dewpoint: 11.0°C (52°F) [RH = 50%]
Pressure (altimeter): 29.85 inches Hg (1011.0 mb)
Winds: from the N (350 degrees) at 21 MPH (18 knots; 9.3 m/s)
Visibility: 6 or more miles (10+ km)
Ceiling: ceiling and visibility are OK
Clouds: unknown
Weather: no significant weather observed at this time

METAR text: LTBJ 172350Z 36012KT CAVOK 22/11 Q1011 NOSIG RMK RWY16 36016KT
Conditions at: LTBJ (IZMIR/ADNAN MEND, TR) observed 2350 UTC 17 August 2019
Temperature: 22.0°C (72°F)
Dewpoint: 11.0°C (52°F) [RH = 50%]
Pressure (altimeter): 29.85 inches Hg (1011.0 mb)
Winds: from the N (360 degrees) at 14 MPH (12 knots; 6.2 m/s)
Visibility: 6 or more miles (10+ km)
Ceiling: ceiling and visibility are OK
Clouds: unknown
Weather: no significant weather observed at this time

METAR text: LTBJ 172320Z 01014KT CAVOK 22/10 Q1011 NOSIG RMK RWY16 36017KT
Conditions at: LTBJ (IZMIR/ADNAN MEND, TR) observed 2320 UTC 17 August 2019
Temperature: 22.0°C (72°F)
Dewpoint: 10.0°C (50°F) [RH = 46%]
Pressure (altimeter): 29.85 inches Hg (1011.0 mb)
Winds: from the N (10 degrees) at 16 MPH (14 knots; 7.2 m/s)
Visibility: 6 or more miles (10+ km)
Ceiling: ceiling and visibility are OK
Clouds: unknown
Weather: no significant weather observed at this time

METAR text: LTBJ 172250Z 36016G26KT CAVOK 23/11 Q1011 NOSIG RMK RWY16 36019KT
Conditions at: LTBJ (IZMIR/ADNAN MEND, TR) observed 2250 UTC 17 August 2019
Temperature: 23.0°C (73°F)
Dewpoint: 11.0°C (52°F) [RH = 47%]
Pressure (altimeter): 29.85 inches Hg (1011.0 mb)
Winds: from the N (360 degrees) at 18 MPH (16 knots; 8.2 m/s)
gusting to 30 MPH (26 knots; 13.4 m/s)
Visibility: 6 or more miles (10+ km)
Ceiling: ceiling and visibility are OK
Clouds: unknown
Weather: no significant weather observed at this time

METAR text: LTBJ 172220Z 36020KT CAVOK 23/11 Q1011 NOSIG RMK RWY16 35018KT
Conditions at: LTBJ (IZMIR/ADNAN MEND, TR) observed 2220 UTC 17 August 2019
Temperature: 23.0°C (73°F)
Dewpoint: 11.0°C (52°F) [RH = 47%]
Pressure (altimeter): 29.85 inches Hg (1011.0 mb)
Winds: from the N (360 degrees) at 23 MPH (20 knots; 10.3 m/s)
Visibility: 6 or more miles (10+ km)
Ceiling: ceiling and visibility are OK
Clouds: unknown
Weather: no significant weather observed at this time

METAR text: LTBJ 172150Z 36016KT CAVOK 22/11 Q1011 NOSIG RMK RWY16 35015KT
Conditions at: LTBJ (IZMIR/ADNAN MEND, TR) observed 2150 UTC 17 August 2019
Temperature: 22.0°C (72°F)
Dewpoint: 11.0°C (52°F) [RH = 50%]
Pressure (altimeter): 29.85 inches Hg (1011.0 mb)
Winds: from the N (360 degrees) at 18 MPH (16 knots; 8.2 m/s)
Visibility: 6 or more miles (10+ km)
Ceiling: ceiling and visibility are OK
Clouds: unknown
Weather: no significant weather observed at this time

METAR text: LTBJ 172120Z 36019KT CAVOK 23/11 Q1011 NOSIG RMK RWY16 35019G29KT
Conditions at: LTBJ (IZMIR/ADNAN MEND, TR) observed 2120 UTC 17 August 2019
Temperature: 23.0°C (73°F)
Dewpoint: 11.0°C (52°F) [RH = 47%]
Pressure (altimeter): 29.85 inches Hg (1011.0 mb)
Winds: from the N (360 degrees) at 22 MPH (19 knots; 9.8 m/s)
Visibility: 6 or more miles (10+ km)
Ceiling: ceiling and visibility are OK
Clouds: unknown
Weather: no significant weather observed at this time

METAR text: LTBJ 172050Z 36015KT CAVOK 23/11 Q1011 NOSIG RMK RWY16 36017KT
Conditions at: LTBJ (IZMIR/ADNAN MEND, TR) observed 2050 UTC 17 August 2019
Temperature: 23.0°C (73°F)
Dewpoint: 11.0°C (52°F) [RH = 47%]
Pressure (altimeter): 29.85 inches Hg (1011.0 mb)
Winds: from the N (360 degrees) at 17 MPH (15 knots; 7.7 m/s)
Visibility: 6 or more miles (10+ km)
Ceiling: ceiling and visibility are OK
Clouds: unknown
Weather: no significant weather observed at this time

METAR text: LTBJ 172020Z 36018KT CAVOK 23/11 Q1011 NOSIG RMK RWY16 36018KT
Conditions at: LTBJ (IZMIR/ADNAN MEND, TR) observed 2020 UTC 17 August 2019
Temperature: 23.0°C (73°F)
Dewpoint: 11.0°C (52°F) [RH = 47%]
Pressure (altimeter): 29.85 inches Hg (1011.0 mb)
Winds: from the N (360 degrees) at 21 MPH (18 knots; 9.3 m/s)
Visibility: 6 or more miles (10+ km)
Ceiling: ceiling and visibility are OK
Clouds: unknown
Weather: no significant weather observed at this time

METAR text: LTBJ 171950Z 36017KT CAVOK 24/11 Q1011 NOSIG RMK RWY16 36017KT
Conditions at: LTBJ (IZMIR/ADNAN MEND, TR) observed 1950 UTC 17 August 2019
Temperature: 24.0°C (75°F)
Dewpoint: 11.0°C (52°F) [RH = 44%]
Pressure (altimeter): 29.85 inches Hg (1011.0 mb)
Winds: from the N (360 degrees) at 20 MPH (17 knots; 8.7 m/s)
Visibility: 6 or more miles (10+ km)
Ceiling: ceiling and visibility are OK
Clouds: unknown
Weather: no significant weather observed at this time

METAR text: LTBJ 171920Z 36020KT CAVOK 24/12 Q1011 NOSIG RMK RWY16 36018KT
Conditions at: LTBJ (IZMIR/ADNAN MEND, TR) observed 1920 UTC 17 August 2019
Temperature: 24.0°C (75°F)
Dewpoint: 12.0°C (54°F) [RH = 47%]
Pressure (altimeter): 29.85 inches Hg (1011.0 mb)
Winds: from the N (360 degrees) at 23 MPH (20 knots; 10.3 m/s)
Visibility: 6 or more miles (10+ km)
Ceiling: ceiling and visibility are OK
Clouds: unknown
Weather: no significant weather observed at this time

METAR text: LTBJ 171850Z 01014KT CAVOK 24/12 Q1011 NOSIG RMK RWY16 36015KT
Conditions at: LTBJ (IZMIR/ADNAN MEND, TR) observed 1850 UTC 17 August 2019
Temperature: 24.0°C (75°F)
Dewpoint: 12.0°C (54°F) [RH = 47%]
Pressure (altimeter): 29.85 inches Hg (1011.0 mb)
Winds: from the N (10 degrees) at 16 MPH (14 knots; 7.2 m/s)
Visibility: 6 or more miles (10+ km)
Ceiling: ceiling and visibility are OK
Clouds: unknown
Weather: no significant weather observed at this time

METAR text: LTBJ 171820Z 01012KT 9999 FEW030 25/13 Q1011 NOSIG RMK RWY16 01013KT
Conditions at: LTBJ (IZMIR/ADNAN MEND, TR) observed 1820 UTC 17 August 2019
Temperature: 25.0°C (77°F)
Dewpoint: 13.0°C (55°F) [RH = 47%]
Pressure (altimeter): 29.85 inches Hg (1011.0 mb)
Winds: from the N (10 degrees) at 14 MPH (12 knots; 6.2 m/s)
Visibility: 6 or more miles (10+ km)
Ceiling: at least 12,000 feet AGL
Clouds: few clouds at 3000 feet AGL
Weather: no significant weather observed at this time

METAR text: LTBJ 171750Z 03016KT 9999 FEW030 25/13 Q1010 NOSIG RMK RWY16 02016KT
Conditions at: LTBJ (IZMIR/ADNAN MEND, TR) observed 1750 UTC 17 August 2019
Temperature: 25.0°C (77°F)
Dewpoint: 13.0°C (55°F) [RH = 47%]
Pressure (altimeter): 29.82 inches Hg (1010.0 mb)
Winds: from the NNE (30 degrees) at 18 MPH (16 knots; 8.2 m/s)
Visibility: 6 or more miles (10+ km)
Ceiling: at least 12,000 feet AGL
Clouds: few clouds at 3000 feet AGL
Weather: no significant weather observed at this time

METAR text: LTBJ 171720Z 03015KT 9999 FEW030 26/13 Q1010 NOSIG RMK RWY16 02017KT
Conditions at: LTBJ (IZMIR/ADNAN MEND, TR) observed 1720 UTC 17 August 2019
Temperature: 26.0°C (79°F)
Dewpoint: 13.0°C (55°F) [RH = 45%]
Pressure (altimeter): 29.82 inches Hg (1010.0 mb)
Winds: from the NNE (30 degrees) at 17 MPH (15 knots; 7.7 m/s)
Visibility: 6 or more miles (10+ km)
Ceiling: at least 12,000 feet AGL
Clouds: few clouds at 3000 feet AGL
Weather: no significant weather observed at this time

METAR text: LTBJ 171650Z 03013KT 9999 FEW030 28/12 Q1010 NOSIG RMK RWY16 02017KT
Conditions at: LTBJ (IZMIR/ADNAN MEND, TR) observed 1650 UTC 17 August 2019
Temperature: 28.0°C (82°F)
Dewpoint: 12.0°C (54°F) [RH = 37%]
Pressure (altimeter): 29.82 inches Hg (1010.0 mb)
Winds: from the NNE (30 degrees) at 15 MPH (13 knots; 6.7 m/s)
Visibility: 6 or more miles (10+ km)
Ceiling: at least 12,000 feet AGL
Clouds: few clouds at 3000 feet AGL
Weather: no significant weather observed at this time

METAR text: LTBJ 171620Z 33013KT 9999 SCT030 28/14 Q1009 NOSIG RMK RWY16 33013KT 300V360
Conditions at: LTBJ (IZMIR/ADNAN MEND, TR) observed 1620 UTC 17 August 2019
Temperature: 28.0°C (82°F)
Dewpoint: 14.0°C (57°F) [RH = 42%]
Pressure (altimeter): 29.79 inches Hg (1009.0 mb)
Winds: from the NNW (330 degrees) at 15 MPH (13 knots; 6.7 m/s)
Visibility: 6 or more miles (10+ km)
Ceiling: at least 12,000 feet AGL
Clouds: scattered clouds at 3000 feet AGL
Weather: no significant weather observed at this time

METAR text: LTBJ 171550Z 34018KT 9999 SCT030 28/14 Q1009 NOSIG RMK RWY16 32017KT
Conditions at: LTBJ (IZMIR/ADNAN MEND, TR) observed 1550 UTC 17 August 2019
Temperature: 28.0°C (82°F)
Dewpoint: 14.0°C (57°F) [RH = 42%]
Pressure (altimeter): 29.79 inches Hg (1009.0 mb)
Winds: from the NNW (340 degrees) at 21 MPH (18 knots; 9.3 m/s)
Visibility: 6 or more miles (10+ km)
Ceiling: at least 12,000 feet AGL
Clouds: scattered clouds at 3000 feet AGL
Weather: no significant weather observed at this time

Forecast for: LTBJ (IZMIR/ADNAN MEND, TR)
Text: TAF LTBJ 182240Z 1900/1924 35014KT CAVOK
Forecast period: 0000 to 0500 UTC 19 August 2019
Forecast type: FROM: standard forecast or significant change
Winds: from the N (350 degrees) at 16 MPH (14 knots; 7.2 m/s)
Visibility: 6 or more miles 10+ km)
Ceiling: unknown
Clouds: missing
Weather: NSW  (no significant weather)
Text: BECMG 1905/1908 36018G30KT
Forecast period: 0500 to 1000 UTC 19 August 2019
Forecast type: BECOMING: Conditions expected to become as follows by 0800 UTC 19 August 2019
Winds: from the N (360 degrees) at 21 MPH (18 knots; 9.3 m/s)
gusting to 34 MPH (30 knots; 15.4 m/s)
Visibility: 6 or more miles 10+ km)
Ceiling: unknown
Clouds: missing
Weather: NSW  (no significant weather)
Text: BECMG 1910/1913 01023G40KT FEW030
Forecast period: 1000 to 1500 UTC 19 August 2019
Forecast type: BECOMING: Conditions expected to become as follows by 1300 UTC 19 August 2019
Winds: from the N (10 degrees) at 26 MPH (23 knots; 11.8 m/s)
gusting to 46 MPH (40 knots; 20.6 m/s)
Visibility: 6 or more miles 10+ km)
Ceiling: at least 12,000 feet AGL
Clouds: few clouds at 3000 feet AGL
Weather: NSW  (no significant weather)
Text: BECMG 1915/1918 CAVOK
Forecast period: 1500 to 1900 UTC 19 August 2019
Forecast type: BECOMING: Conditions expected to become as follows by 1800 UTC 19 August 2019
Winds: from the N (10 degrees) at 26 MPH (23 knots; 11.8 m/s)
gusting to 46 MPH (40 knots; 20.6 m/s)
Visibility: 6 or more miles 10+ km)
Ceiling: unknown
Clouds: missing
Weather: NSW  (no significant weather)
Text: BECMG 1919/1922 35014KT
Forecast period: 1900 UTC 19 August 2019 to 0000 UTC 20 August 2019
Forecast type: BECOMING: Conditions expected to become as follows by 2200 UTC 19 August 2019
Winds: from the N (350 degrees) at 16 MPH (14 knots; 7.2 m/s)
Visibility: 6 or more miles 10+ km)
Ceiling: unknown
Clouds: missing
Weather: NSW  (no significant weather)